Tacna, Arizona
Current Conditions -  °F | °C
As of 8:57 AM on Sunday 23 Nov 2014 (Local Time) from KNYL Reporting Station
Broken Clouds Broken Clouds  
Wind Chill: 66°   Ceiling: 30000
Heat Index: 66°   Visibility: 10mi
Dew Point: 40°   Wind: 9mph
Humidity: 38%   Direction: 360°N
Pressure: 30.08"   Gusts: NA
Location:  32.7°N, 113.96°W
Report Text: KNYL 231557Z 36008KT 10SM FEW180 BKN300 19/04 A3008 RMK AO2 SLP185 T01890044 $
Loading
Personal Weather Stations






























Interactive Weather Map New forecast layout! Learn more

10-Day Weather Forecast

Advertisements
Track Severe Weather on mobile